sensor_id;sensor_type;location;lat;lon;timestamp;pressure;altitude;pressure_sealevel;temperature;humidity
21240;BME280;10778;48.962;9.018;2023-04-30T00:01:10;99408.69;;;10.02;100.00
21240;BME280;10778;48.962;9.018;2023-04-30T00:03:36;99402.84;;;9.99;100.00
21240;BME280;10778;48.962;9.018;2023-04-30T00:06:02;99404.66;;;9.98;100.00
21240;BME280;10778;48.962;9.018;2023-04-30T00:08:28;99403.44;;;10.02;100.00
21240;BME280;10778;48.962;9.018;2023-04-30T00:10:54;99410.72;;;9.99;100.00
21240;BME280;10778;48.962;9.018;2023-04-30T00:13:20;99405.00;;;10.05;100.00
21240;BME280;10778;48.962;9.018;2023-04-30T00:15:46;99400.81;;;10.02;100.00
21240;BME280;10778;48.962;9.018;2023-04-30T00:18:12;99415.28;;;9.96;100.00
21240;BME280;10778;48.962;9.018;2023-04-30T00:20:38;99413.38;;;9.99;100.00
21240;BME280;10778;48.962;9.018;2023-04-30T00:23:04;99417.66;;;10.00;100.00
21240;BME280;10778;48.962;9.018;2023-04-30T00:25:30;99427.22;;;10.01;100.00
21240;BME280;10778;48.962;9.018;2023-04-30T00:27:56;99421.94;;;10.01;100.00
21240;BME280;10778;48.962;9.018;2023-04-30T00:30:22;99411.84;;;9.96;100.00
21240;BME280;10778;48.962;9.018;2023-04-30T00:32:48;99410.41;;;9.92;100.00
21240;BME280;10778;48.962;9.018;2023-04-30T00:35:15;99420.91;;;9.92;100.00
21240;BME280;10778;48.962;9.018;2023-04-30T00:37:41;99422.72;;;9.91;100.00
21240;BME280;10778;48.962;9.018;2023-04-30T00:40:07;99431.56;;;9.90;100.00
21240;BME280;10778;48.962;9.018;2023-04-30T00:42:33;99437.31;;;9.84;100.00
21240;BME280;10778;48.962;9.018;2023-04-30T00:44:59;99434.47;;;9.87;100.00
21240;BME280;10778;48.962;9.018;2023-04-30T00:47:26;99434.69;;;9.84;100.00
21240;BME280;10778;48.962;9.018;2023-04-30T00:49:52;99436.22;;;9.87;100.00
21240;BME280;10778;48.962;9.018;2023-04-30T00:52:18;99437.44;;;9.82;100.00
21240;BME280;10778;48.962;9.018;2023-04-30T00:54:44;99439.81;;;9.86;100.00
21240;BME280;10778;48.962;9.018;2023-04-30T00:57:11;99437.78;;;9.89;100.00
21240;BME280;10778;48.962;9.018;2023-04-30T00:59:38;99432.91;;;9.85;100.00
21240;BME280;10778;48.962;9.018;2023-04-30T01:02:04;99438.03;;;9.86;100.00
21240;BME280;10778;48.962;9.018;2023-04-30T01:04:30;99434.81;;;9.82;100.00
21240;BME280;10778;48.962;9.018;2023-04-30T01:06:59;99433.75;;;9.85;100.00
21240;BME280;10778;48.962;9.018;2023-04-30T01:09:27;99429.44;;;9.84;100.00
21240;BME280;10778;48.962;9.018;2023-04-30T01:12:01;99419.88;;;9.83;100.00
21240;BME280;10778;48.962;9.018;2023-04-30T01:17:53;99422.91;;;9.78;100.00
21240;BME280;10778;48.962;9.018;2023-04-30T01:20:21;99420.50;;;9.75;100.00
21240;BME280;10778;48.962;9.018;2023-04-30T01:28:24;99418.97;;;9.73;100.00
21240;BME280;10778;48.962;9.018;2023-04-30T01:30:50;99417.50;;;9.80;100.00
21240;BME280;10778;48.962;9.018;2023-04-30T01:33:16;99414.16;;;9.78;100.00
21240;BME280;10778;48.962;9.018;2023-04-30T01:42:20;99415.50;;;9.72;100.00
21240;BME280;10778;48.962;9.018;2023-04-30T01:45:16;99418.00;;;9.74;100.00
21240;BME280;10778;48.962;9.018;2023-04-30T01:50:32;99419.69;;;9.75;100.00
21240;BME280;10778;48.962;9.018;2023-04-30T01:53:06;99422.66;;;9.70;100.00
21240;BME280;10778;48.962;9.018;2023-04-30T01:55:42;99419.34;;;9.68;100.00
21240;BME280;10778;48.962;9.018;2023-04-30T01:58:11;99413.13;;;9.69;100.00
21240;BME280;10778;48.962;9.018;2023-04-30T02:00:38;99420.03;;;9.70;100.00
21240;BME280;10778;48.962;9.018;2023-04-30T02:03:04;99419.44;;;9.66;100.00
21240;BME280;10778;48.962;9.018;2023-04-30T02:05:30;99416.13;;;9.64;100.00
21240;BME280;10778;48.962;9.018;2023-04-30T02:07:56;99419.44;;;9.66;100.00
21240;BME280;10778;48.962;9.018;2023-04-30T02:10:24;99414.69;;;9.60;100.00
21240;BME280;10778;48.962;9.018;2023-04-30T02:12:51;99406.81;;;9.60;100.00
21240;BME280;10778;48.962;9.018;2023-04-30T02:15:18;99405.38;;;9.67;100.00
21240;BME280;10778;48.962;9.018;2023-04-30T02:17:44;99399.66;;;9.62;100.00
21240;BME280;10778;48.962;9.018;2023-04-30T02:20:10;99406.97;;;9.59;100.00
21240;BME280;10778;48.962;9.018;2023-04-30T02:22:37;99414.69;;;9.60;100.00
21240;BME280;10778;48.962;9.018;2023-04-30T02:25:03;99420.22;;;9.57;100.00
21240;BME280;10778;48.962;9.018;2023-04-30T02:27:30;99406.63;;;9.52;100.00
21240;BME280;10778;48.962;9.018;2023-04-30T02:29:57;99406.84;;;9.49;100.00
21240;BME280;10778;48.962;9.018;2023-04-30T02:32:23;99408.75;;;9.47;100.00
21240;BME280;10778;48.962;9.018;2023-04-30T02:34:49;99403.66;;;9.45;100.00
21240;BME280;10778;48.962;9.018;2023-04-30T02:37:15;99407.09;;;9.46;100.00
21240;BME280;10778;48.962;9.018;2023-04-30T02:39:41;99404.47;;;9.46;100.00
21240;BME280;10778;48.962;9.018;2023-04-30T02:42:07;99402.44;;;9.49;100.00
21240;BME280;10778;48.962;9.018;2023-04-30T02:44:33;99405.06;;;9.49;100.00
21240;BME280;10778;48.962;9.018;2023-04-30T02:47:00;99403.06;;;9.42;100.00
21240;BME280;10778;48.962;9.018;2023-04-30T02:49:26;99412.34;;;9.46;100.00
21240;BME280;10778;48.962;9.018;2023-04-30T02:51:53;99404.59;;;9.44;100.00
21240;BME280;10778;48.962;9.018;2023-04-30T02:54:18;99409.09;;;9.53;100.00
21240;BME280;10778;48.962;9.018;2023-04-30T02:56:45;99417.59;;;9.46;100.00
21240;BME280;10778;48.962;9.018;2023-04-30T02:59:12;99409.34;;;9.50;100.00
21240;BME280;10778;48.962;9.018;2023-04-30T03:01:39;99407.09;;;9.46;100.00
21240;BME280;10778;48.962;9.018;2023-04-30T03:04:05;99405.69;;;9.42;100.00
21240;BME280;10778;48.962;9.018;2023-04-30T03:06:31;99403.06;;;9.42;100.00
21240;BME280;10778;48.962;9.018;2023-04-30T03:08:57;99404.34;;;9.47;100.00
21240;BME280;10778;48.962;9.018;2023-04-30T03:11:24;99406.19;;;9.35;100.00
21240;BME280;10778;48.962;9.018;2023-04-30T03:13:50;99401.88;;;9.34;100.00
21240;BME280;10778;48.962;9.018;2023-04-30T03:16:19;99403.66;;;9.34;100.00
21240;BME280;10778;48.962;9.018;2023-04-30T03:18:47;99410.59;;;9.35;100.00
21240;BME280;10778;48.962;9.018;2023-04-30T03:21:13;99408.66;;;9.37;100.00
21240;BME280;10778;48.962;9.018;2023-04-30T03:23:40;99399.38;;;9.33;100.00
21240;BME280;10778;48.962;9.018;2023-04-30T03:26:06;99399.72;;;9.28;100.00
21240;BME280;10778;48.962;9.018;2023-04-30T03:28:33;99393.78;;;9.26;100.00
21240;BME280;10778;48.962;9.018;2023-04-30T03:31:00;99399.72;;;9.28;100.00
21240;BME280;10778;48.962;9.018;2023-04-30T03:33:30;99402.34;;;9.28;100.00
21240;BME280;10778;48.962;9.018;2023-04-30T03:35:56;99397.00;;;9.30;100.00
21240;BME280;10778;48.962;9.018;2023-04-30T03:38:22;99401.63;;;9.37;100.00
21240;BME280;10778;48.962;9.018;2023-04-30T03:40:49;99402.00;;;9.33;100.00
21240;BME280;10778;48.962;9.018;2023-04-30T03:43:15;99401.75;;;9.36;100.00
21240;BME280;10778;48.962;9.018;2023-04-30T03:45:40;99393.50;;;9.41;100.00
21240;BME280;10778;48.962;9.018;2023-04-30T03:48:06;99398.16;;;9.37;100.00
21240;BME280;10778;48.962;9.018;2023-04-30T03:50:32;99399.13;;;9.36;100.00
21240;BME280;10778;48.962;9.018;2023-04-30T03:52:59;99400.09;;;9.35;100.00
21240;BME280;10778;48.962;9.018;2023-04-30T03:55:25;99400.78;;;9.37;100.00
21240;BME280;10778;48.962;9.018;2023-04-30T03:57:51;99395.53;;;9.37;100.00
21240;BME280;10778;48.962;9.018;2023-04-30T04:00:17;99402.72;;;9.35;100.00
21240;BME280;10778;48.962;9.018;2023-04-30T04:02:48;99399.47;;;9.31;100.00
21240;BME280;10778;48.962;9.018;2023-04-30T04:05:14;99399.13;;;9.36;100.00
21240;BME280;10778;48.962;9.018;2023-04-30T04:07:40;99401.03;;;9.34;100.00
21240;BME280;10778;48.962;9.018;2023-04-30T04:10:07;99404.63;;;9.33;100.00
21240;BME280;10778;48.962;9.018;2023-04-30T04:12:33;99399.84;;;9.38;100.00
21240;BME280;10778;48.962;9.018;2023-04-30T04:14:59;99404.13;;;9.39;100.00
21240;BME280;10778;48.962;9.018;2023-04-30T04:17:25;99402.72;;;9.35;100.00
21240;BME280;10778;48.962;9.018;2023-04-30T04:19:51;99408.56;;;9.38;100.00
21240;BME280;10778;48.962;9.018;2023-04-30T04:22:17;99419.53;;;9.32;100.00
21240;BME280;10778;48.962;9.018;2023-04-30T04:24:44;99412.88;;;9.28;100.00
21240;BME280;10778;48.962;9.018;2023-04-30T04:27:14;99415.97;;;9.33;100.00
21240;BME280;10778;48.962;9.018;2023-04-30T04:29:41;99417.16;;;9.29;100.00
21240;BME280;10778;48.962;9.018;2023-04-30T04:32:07;99415.97;;;9.33;100.00
21240;BME280;10778;48.962;9.018;2023-04-30T04:34:35;99426.59;;;9.32;100.00
21240;BME280;10778;48.962;9.018;2023-04-30T04:37:03;99420.38;;;9.33;100.00
21240;BME280;10778;48.962;9.018;2023-04-30T04:39:29;99428.25;;;9.33;100.00
21240;BME280;10778;48.962;9.018;2023-04-30T04:41:55;99422.03;;;9.34;100.00
21240;BME280;10778;48.962;9.018;2023-04-30T04:44:21;99423.72;;;9.35;100.00
21240;BME280;10778;48.962;9.018;2023-04-30T04:46:47;99425.72;;;9.43;100.00
21240;BME280;10778;48.962;9.018;2023-04-30T04:49:14;99428.25;;;9.44;100.00
21240;BME280;10778;48.962;9.018;2023-04-30T04:51:40;99430.72;;;9.46;100.00
21240;BME280;10778;48.962;9.018;2023-04-30T04:54:06;99426.31;;;9.46;100.00
21240;BME280;10778;48.962;9.018;2023-04-30T04:56:32;99431.31;;;9.61;100.00
21240;BME280;10778;48.962;9.018;2023-04-30T04:58:58;99426.72;;;9.74;98.79
21240;BME280;10778;48.962;9.018;2023-04-30T05:01:24;99430.56;;;9.70;98.97
21240;BME280;10778;48.962;9.018;2023-04-30T05:03:50;99429.44;;;9.84;97.78
21240;BME280;10778;48.962;9.018;2023-04-30T05:06:18;99429.44;;;9.84;98.05
21240;BME280;10778;48.962;9.018;2023-04-30T05:08:44;99427.06;;;9.81;99.16
21240;BME280;10778;48.962;9.018;2023-04-30T05:11:10;99424.91;;;9.86;98.84
21240;BME280;10778;48.962;9.018;2023-04-30T05:13:37;99429.06;;;9.89;98.87
21240;BME280;10778;48.962;9.018;2023-04-30T05:16:03;99430.50;;;9.93;99.46
21240;BME280;10778;48.962;9.018;2023-04-30T05:18:29;99439.09;;;9.95;97.71
21240;BME280;10778;48.962;9.018;2023-04-30T05:20:55;99432.72;;;9.98;98.07
21240;BME280;10778;48.962;9.018;2023-04-30T05:23:21;99429.22;;;10.08;96.91
21240;BME280;10778;48.962;9.018;2023-04-30T05:25:53;99435.75;;;10.14;96.88
21240;BME280;10778;48.962;9.018;2023-04-30T05:28:19;99430.75;;;10.11;97.66
21240;BME280;10778;48.962;9.018;2023-04-30T05:30:46;99432.31;;;10.14;97.17
21240;BME280;10778;48.962;9.018;2023-04-30T05:33:12;99435.50;;;10.17;98.18
21240;BME280;10778;48.962;9.018;2023-04-30T05:35:37;99435.19;;;10.32;96.72
21240;BME280;10778;48.962;9.018;2023-04-30T05:38:03;99433.78;;;10.28;96.46
21240;BME280;10778;48.962;9.018;2023-04-30T05:40:30;99433.66;;;10.29;95.69
21240;BME280;10778;48.962;9.018;2023-04-30T05:42:56;99436.13;;;10.42;94.97
21240;BME280;10778;48.962;9.018;2023-04-30T05:45:23;99436.75;;;10.34;95.78
21240;BME280;10778;48.962;9.018;2023-04-30T05:47:49;99435.88;;;10.45;95.85
21240;BME280;10778;48.962;9.018;2023-04-30T05:50:15;99428.66;;;10.69;95.47
21240;BME280;10778;48.962;9.018;2023-04-30T05:52:41;99434.50;;;10.72;94.21
21240;BME280;10778;48.962;9.018;2023-04-30T05:55:07;99428.63;;;10.90;94.13
21240;BME280;10778;48.962;9.018;2023-04-30T05:57:34;99426.13;;;10.88;93.25
21240;BME280;10778;48.962;9.018;2023-04-30T06:00:00;99422.88;;;11.06;90.96
21240;BME280;10778;48.962;9.018;2023-04-30T06:02:26;99424.41;;;11.08;90.72
21240;BME280;10778;48.962;9.018;2023-04-30T06:04:52;99431.66;;;11.26;90.61
21240;BME280;10778;48.962;9.018;2023-04-30T06:07:18;99424.81;;;11.64;89.40
21240;BME280;10778;48.962;9.018;2023-04-30T06:09:44;99422.59;;;11.89;87.96
21240;BME280;10778;48.962;9.018;2023-04-30T06:12:10;99423.88;;;12.15;86.21
21240;BME280;10778;48.962;9.018;2023-04-30T06:14:36;99430.38;;;12.30;86.27
21240;BME280;10778;48.962;9.018;2023-04-30T06:17:02;99421.78;;;12.86;83.56
21240;BME280;10778;48.962;9.018;2023-04-30T06:19:28;99423.81;;;13.58;80.40
21240;BME280;10778;48.962;9.018;2023-04-30T06:21:54;99424.75;;;13.11;80.26
21240;BME280;10778;48.962;9.018;2023-04-30T06:24:20;99423.25;;;12.98;79.34
21240;BME280;10778;48.962;9.018;2023-04-30T06:26:46;99424.78;;;13.57;77.25
21240;BME280;10778;48.962;9.018;2023-04-30T06:29:12;99417.28;;;13.52;76.99
21240;BME280;10778;48.962;9.018;2023-04-30T06:31:38;99422.94;;;14.30;75.87
21240;BME280;10778;48.962;9.018;2023-04-30T06:34:04;99423.06;;;13.65;77.61
21240;BME280;10778;48.962;9.018;2023-04-30T06:36:30;99420.03;;;13.97;75.95
21240;BME280;10778;48.962;9.018;2023-04-30T06:38:56;99418.97;;;14.07;76.31
21240;BME280;10778;48.962;9.018;2023-04-30T06:41:22;99419.03;;;14.69;74.51
21240;BME280;10778;48.962;9.018;2023-04-30T06:43:48;99416.47;;;15.12;72.94
21240;BME280;10778;48.962;9.018;2023-04-30T06:46:14;99418.88;;;15.40;72.22
21240;BME280;10778;48.962;9.018;2023-04-30T06:48:40;99413.28;;;15.59;71.03
21240;BME280;10778;48.962;9.018;2023-04-30T06:51:06;99414.16;;;15.76;68.96
21240;BME280;10778;48.962;9.018;2023-04-30T06:53:32;99411.38;;;16.28;69.62
21240;BME280;10778;48.962;9.018;2023-04-30T06:55:58;99410.03;;;16.32;67.39
21240;BME280;10778;48.962;9.018;2023-04-30T06:58:24;99406.72;;;16.38;65.36
21240;BME280;10778;48.962;9.018;2023-04-30T07:00:50;99410.34;;;16.54;66.40
21240;BME280;10778;48.962;9.018;2023-04-30T07:03:17;99411.31;;;16.69;64.18
21240;BME280;10778;48.962;9.018;2023-04-30T07:05:43;99417.66;;;16.43;62.79
21240;BME280;10778;48.962;9.018;2023-04-30T07:08:09;99424.56;;;15.53;63.98
21240;BME280;10778;48.962;9.018;2023-04-30T07:10:35;99409.66;;;15.60;64.34
21240;BME280;10778;48.962;9.018;2023-04-30T07:13:01;99411.31;;;15.78;64.78
21240;BME280;10778;48.962;9.018;2023-04-30T07:15:27;99402.59;;;16.02;64.05
21240;BME280;10778;48.962;9.018;2023-04-30T07:17:53;99401.75;;;16.18;63.66
21240;BME280;10778;48.962;9.018;2023-04-30T07:20:19;99398.34;;;16.66;61.67
21240;BME280;10778;48.962;9.018;2023-04-30T07:22:45;99396.81;;;16.80;60.62
21240;BME280;10778;48.962;9.018;2023-04-30T07:25:12;99387.00;;;17.52;61.18
21240;BME280;10778;48.962;9.018;2023-04-30T07:27:38;99394.19;;;17.52;59.85
21240;BME280;10778;48.962;9.018;2023-04-30T07:30:06;99396.44;;;17.00;58.52
21240;BME280;10778;48.962;9.018;2023-04-30T07:32:34;99397.25;;;16.35;61.49
21240;BME280;10778;48.962;9.018;2023-04-30T07:35:00;99395.72;;;16.58;60.85
21240;BME280;10778;48.962;9.018;2023-04-30T07:37:26;99400.53;;;16.54;61.99
21240;BME280;10778;48.962;9.018;2023-04-30T07:39:52;99389.81;;;16.87;60.68
21240;BME280;10778;48.962;9.018;2023-04-30T07:42:18;99394.22;;;16.63;60.06
21240;BME280;10778;48.962;9.018;2023-04-30T07:44:44;99394.97;;;15.99;59.96
21240;BME280;10778;48.962;9.018;2023-04-30T07:47:10;99393.09;;;16.33;59.91
21240;BME280;10778;48.962;9.018;2023-04-30T07:49:36;99394.13;;;15.99;60.43
21240;BME280;10778;48.962;9.018;2023-04-30T07:52:03;99392.31;;;15.99;62.10
21240;BME280;10778;48.962;9.018;2023-04-30T07:54:29;99392.09;;;16.34;61.49
21240;BME280;10778;48.962;9.018;2023-04-30T07:56:54;99384.88;;;17.24;59.72
21240;BME280;10778;48.962;9.018;2023-04-30T07:59:21;99371.38;;;17.26;55.66
21240;BME280;10778;48.962;9.018;2023-04-30T08:01:50;99373.31;;;18.10;55.16
21240;BME280;10778;48.962;9.018;2023-04-30T08:04:16;99374.28;;;17.47;53.24
21240;BME280;10778;48.962;9.018;2023-04-30T08:06:42;99375.22;;;17.78;53.87
21240;BME280;10778;48.962;9.018;2023-04-30T08:09:08;99375.97;;;17.63;53.09
21240;BME280;10778;48.962;9.018;2023-04-30T08:11:34;99378.50;;;17.57;53.37
21240;BME280;10778;48.962;9.018;2023-04-30T08:14:00;99367.28;;;17.70;52.90
21240;BME280;10778;48.962;9.018;2023-04-30T08:16:26;99364.47;;;17.86;51.46
21240;BME280;10778;48.962;9.018;2023-04-30T08:18:53;99367.84;;;18.42;52.83
21240;BME280;10778;48.962;9.018;2023-04-30T08:21:18;99369.94;;;18.61;52.16
21240;BME280;10778;48.962;9.018;2023-04-30T08:23:44;99360.94;;;18.93;50.21
21240;BME280;10778;48.962;9.018;2023-04-30T08:26:10;99372.09;;;18.13;51.59
21240;BME280;10778;48.962;9.018;2023-04-30T08:28:36;99372.44;;;18.63;50.98
21240;BME280;10778;48.962;9.018;2023-04-30T08:31:02;99373.34;;;18.70;50.88
21240;BME280;10778;48.962;9.018;2023-04-30T08:33:28;99373.53;;;18.24;50.58
21240;BME280;10778;48.962;9.018;2023-04-30T08:35:54;99359.28;;;19.07;49.90
21240;BME280;10778;48.962;9.018;2023-04-30T08:38:20;99358.31;;;19.29;49.25
21240;BME280;10778;48.962;9.018;2023-04-30T08:40:53;99370.19;;;19.27;49.26
21240;BME280;10778;48.962;9.018;2023-04-30T08:43:21;99370.59;;;18.79;49.29
21240;BME280;10778;48.962;9.018;2023-04-30T08:45:49;99360.94;;;19.88;48.13
21240;BME280;10778;48.962;9.018;2023-04-30T08:48:17;99356.72;;;20.00;47.85
21240;BME280;10778;48.962;9.018;2023-04-30T08:50:44;99353.59;;;19.31;47.26
21240;BME280;10778;48.962;9.018;2023-04-30T08:53:11;99368.31;;;18.75;47.05
21240;BME280;10778;48.962;9.018;2023-04-30T08:55:39;99372.81;;;18.60;46.89
21240;BME280;10778;48.962;9.018;2023-04-30T08:58:07;99367.72;;;17.97;48.52
21240;BME280;10778;48.962;9.018;2023-04-30T09:00:36;99379.97;;;17.36;50.13
21240;BME280;10778;48.962;9.018;2023-04-30T09:03:03;99387.59;;;16.51;51.35
21240;BME280;10778;48.962;9.018;2023-04-30T09:05:30;99395.09;;;16.14;53.42
21240;BME280;10778;48.962;9.018;2023-04-30T09:07:56;99380.81;;;17.83;50.40
21240;BME280;10778;48.962;9.018;2023-04-30T09:10:23;99371.59;;;17.16;51.75
21240;BME280;10778;48.962;9.018;2023-04-30T09:13:05;99385.16;;;16.08;53.73
21240;BME280;10778;48.962;9.018;2023-04-30T09:15:33;99376.13;;;16.59;52.41
21240;BME280;10778;48.962;9.018;2023-04-30T09:18:13;99379.03;;;17.52;51.23
21240;BME280;10778;48.962;9.018;2023-04-30T09:20:59;99365.81;;;17.90;49.88
21240;BME280;10778;48.962;9.018;2023-04-30T09:23:26;99381.63;;;17.37;53.12
21240;BME280;10778;48.962;9.018;2023-04-30T09:25:53;99371.56;;;16.84;51.87
21240;BME280;10778;48.962;9.018;2023-04-30T09:28:19;99375.69;;;16.22;51.44
21240;BME280;10778;48.962;9.018;2023-04-30T09:30:50;99383.47;;;16.32;52.33
21240;BME280;10778;48.962;9.018;2023-04-30T09:33:16;99383.97;;;16.35;52.31
21240;BME280;10778;48.962;9.018;2023-04-30T09:35:43;99374.84;;;16.38;51.77
21240;BME280;10778;48.962;9.018;2023-04-30T09:40:52;99368.81;;;16.69;51.74
21240;BME280;10778;48.962;9.018;2023-04-30T09:43:18;99371.63;;;16.68;51.53
21240;BME280;10778;48.962;9.018;2023-04-30T09:45:46;99370.34;;;16.95;52.07
21240;BME280;10778;48.962;9.018;2023-04-30T09:48:20;99378.03;;;16.90;52.17
21240;BME280;10778;48.962;9.018;2023-04-30T09:50:48;99378.28;;;17.12;52.50
21240;BME280;10778;48.962;9.018;2023-04-30T09:53:14;99371.28;;;16.71;51.41
21240;BME280;10778;48.962;9.018;2023-04-30T09:55:47;99376.81;;;16.53;53.17
21240;BME280;10778;48.962;9.018;2023-04-30T09:58:14;99379.97;;;16.48;52.48
21240;BME280;10778;48.962;9.018;2023-04-30T10:00:42;99381.13;;;16.45;51.58
21240;BME280;10778;48.962;9.018;2023-04-30T10:03:12;99380.72;;;16.73;52.06
21240;BME280;10778;48.962;9.018;2023-04-30T10:05:40;99374.38;;;16.83;52.16
21240;BME280;10778;48.962;9.018;2023-04-30T10:08:12;99370.22;;;16.88;52.03
21240;BME280;10778;48.962;9.018;2023-04-30T10:10:42;99374.56;;;16.73;52.53
21240;BME280;10778;48.962;9.018;2023-04-30T10:13:10;99363.59;;;16.76;51.32
21240;BME280;10778;48.962;9.018;2023-04-30T10:15:42;99360.38;;;17.29;50.93
21240;BME280;10778;48.962;9.018;2023-04-30T10:18:19;99358.50;;;16.66;51.23
21240;BME280;10778;48.962;9.018;2023-04-30T10:20:47;99353.50;;;16.71;52.34
21240;BME280;10778;48.962;9.018;2023-04-30T10:23:16;99364.00;;;16.64;51.82
21240;BME280;10778;48.962;9.018;2023-04-30T10:25:43;99369.53;;;16.38;50.27
21240;BME280;10778;48.962;9.018;2023-04-30T10:28:09;99368.69;;;16.46;51.35
21240;BME280;10778;48.962;9.018;2023-04-30T10:30:35;99365.69;;;16.49;51.80
21240;BME280;10778;48.962;9.018;2023-04-30T10:36:02;99361.84;;;16.52;51.72
21240;BME280;10778;48.962;9.018;2023-04-30T10:38:35;99360.94;;;16.76;52.06
21240;BME280;10778;48.962;9.018;2023-04-30T10:41:05;99354.00;;;17.15;51.20
21240;BME280;10778;48.962;9.018;2023-04-30T10:43:31;99355.38;;;17.02;51.03
21240;BME280;10778;48.962;9.018;2023-04-30T10:45:59;99352.44;;;16.89;50.96
21240;BME280;10778;48.962;9.018;2023-04-30T10:48:27;99357.28;;;16.85;51.23
21240;BME280;10778;48.962;9.018;2023-04-30T10:50:56;99352.16;;;16.75;49.69
21240;BME280;10778;48.962;9.018;2023-04-30T10:53:23;99355.22;;;17.04;51.17
21240;BME280;10778;48.962;9.018;2023-04-30T10:55:53;99343.41;;;17.06;50.30
21240;BME280;10778;48.962;9.018;2023-04-30T10:58:29;99344.22;;;17.15;51.07
21240;BME280;10778;48.962;9.018;2023-04-30T11:01:04;99343.88;;;17.10;50.02
21240;BME280;10778;48.962;9.018;2023-04-30T11:03:31;99340.75;;;17.06;50.52
21240;BME280;10778;48.962;9.018;2023-04-30T11:05:59;99344.03;;;17.40;49.66
21240;BME280;10778;48.962;9.018;2023-04-30T11:08:33;99331.69;;;17.24;48.84
21240;BME280;10778;48.962;9.018;2023-04-30T11:10:59;99339.84;;;17.23;49.15
21240;BME280;10778;48.962;9.018;2023-04-30T11:13:27;99345.69;;;17.41;49.54
21240;BME280;10778;48.962;9.018;2023-04-30T11:15:53;99341.69;;;16.82;48.74
21240;BME280;10778;48.962;9.018;2023-04-30T11:18:19;99341.13;;;16.95;49.45
21240;BME280;10778;48.962;9.018;2023-04-30T11:20:49;99339.03;;;16.82;49.22
21240;BME280;10778;48.962;9.018;2023-04-30T11:23:21;99338.63;;;16.93;49.96
21240;BME280;10778;48.962;9.018;2023-04-30T11:25:47;99332.97;;;16.97;50.28
21240;BME280;10778;48.962;9.018;2023-04-30T11:28:20;99330.50;;;17.27;49.80
21240;BME280;10778;48.962;9.018;2023-04-30T11:30:55;99333.94;;;17.59;50.63
21240;BME280;10778;48.962;9.018;2023-04-30T11:33:23;99324.63;;;17.40;49.62
21240;BME280;10778;48.962;9.018;2023-04-30T11:35:50;99321.44;;;17.83;48.99
21240;BME280;10778;48.962;9.018;2023-04-30T11:38:23;99319.97;;;18.03;49.13
21240;BME280;10778;48.962;9.018;2023-04-30T11:40:51;99317.22;;;17.88;47.67
21240;BME280;10778;48.962;9.018;2023-04-30T11:43:27;99309.41;;;17.72;49.11
21240;BME280;10778;48.962;9.018;2023-04-30T11:45:59;99311.88;;;17.27;49.08
21240;BME280;10778;48.962;9.018;2023-04-30T11:48:39;99309.59;;;17.47;48.39
21240;BME280;10778;48.962;9.018;2023-04-30T11:51:18;99316.44;;;17.41;49.65
21240;BME280;10778;48.962;9.018;2023-04-30T11:53:47;99306.19;;;17.53;48.78
21240;BME280;10778;48.962;9.018;2023-04-30T11:56:17;99301.72;;;17.92;49.48
21240;BME280;10778;48.962;9.018;2023-04-30T11:58:45;99305.63;;;17.66;48.60
21240;BME280;10778;48.962;9.018;2023-04-30T12:01:11;99301.47;;;17.63;48.32
21240;BME280;10778;48.962;9.018;2023-04-30T12:03:45;99307.53;;;17.34;50.02
21240;BME280;10778;48.962;9.018;2023-04-30T12:06:20;99296.25;;;17.55;49.04
21240;BME280;10778;48.962;9.018;2023-04-30T12:08:46;99302.09;;;17.51;49.12
21240;BME280;10778;48.962;9.018;2023-04-30T12:11:22;99294.09;;;17.27;48.59
21240;BME280;10778;48.962;9.018;2023-04-30T12:13:55;99293.50;;;17.17;49.06
21240;BME280;10778;48.962;9.018;2023-04-30T12:16:23;99301.06;;;17.28;51.16
21240;BME280;10778;48.962;9.018;2023-04-30T12:18:50;99304.50;;;17.14;50.82
21240;BME280;10778;48.962;9.018;2023-04-30T12:21:16;99305.25;;;16.91;50.32
21240;BME280;10778;48.962;9.018;2023-04-30T12:23:43;99306.13;;;16.83;50.20
21240;BME280;10778;48.962;9.018;2023-04-30T12:26:09;99301.53;;;17.09;50.05
21240;BME280;10778;48.962;9.018;2023-04-30T12:28:36;99295.28;;;17.48;48.87
21240;BME280;10778;48.962;9.018;2023-04-30T12:31:02;99282.84;;;17.63;48.22
21240;BME280;10778;48.962;9.018;2023-04-30T12:33:31;99292.81;;;17.85;47.82
21240;BME280;10778;48.962;9.018;2023-04-30T12:35:57;99280.94;;;17.72;49.43
21240;BME280;10778;48.962;9.018;2023-04-30T12:38:24;99292.09;;;17.91;50.74
21240;BME280;10778;48.962;9.018;2023-04-30T12:40:50;99287.06;;;17.58;49.02
21240;BME280;10778;48.962;9.018;2023-04-30T12:43:16;99283.59;;;17.57;49.02
21240;BME280;10778;48.962;9.018;2023-04-30T12:45:52;99287.88;;;17.58;49.34
21240;BME280;10778;48.962;9.018;2023-04-30T12:48:21;99284.75;;;17.93;49.40
21240;BME280;10778;48.962;9.018;2023-04-30T12:50:55;99283.72;;;17.94;48.38
21240;BME280;10778;48.962;9.018;2023-04-30T12:53:23;99278.31;;;18.77;46.70
21240;BME280;10778;48.962;9.018;2023-04-30T12:56:09;99268.72;;;18.98;45.26
21240;BME280;10778;48.962;9.018;2023-04-30T12:58:35;99268.69;;;18.76;45.60
21240;BME280;10778;48.962;9.018;2023-04-30T13:01:01;99254.91;;;18.73;45.67
21240;BME280;10778;48.962;9.018;2023-04-30T13:03:27;99263.22;;;18.85;44.53
21240;BME280;10778;48.962;9.018;2023-04-30T13:05:53;99259.63;;;18.11;48.15
21240;BME280;10778;48.962;9.018;2023-04-30T13:08:20;99264.13;;;18.25;47.35
21240;BME280;10778;48.962;9.018;2023-04-30T13:10:47;99259.13;;;17.92;47.70
21240;BME280;10778;48.962;9.018;2023-04-30T13:13:14;99258.75;;;17.80;47.55
21240;BME280;10778;48.962;9.018;2023-04-30T13:15:41;99249.75;;;17.66;46.67
21240;BME280;10778;48.962;9.018;2023-04-30T13:18:08;99246.34;;;17.57;46.98
21240;BME280;10778;48.962;9.018;2023-04-30T13:20:35;99246.34;;;17.57;48.48
21240;BME280;10778;48.962;9.018;2023-04-30T13:23:01;99246.28;;;17.81;49.39
21240;BME280;10778;48.962;9.018;2023-04-30T13:25:27;99241.13;;;17.94;48.92